createdAt,value
2023-04-09T00:00:11.234Z,47.49
2023-04-09T00:00:36.150Z,47.49
2023-04-09T00:01:02.849Z,47.52
2023-04-09T00:01:24.752Z,47.72
2023-04-09T00:01:47.361Z,47.92
2023-04-09T00:02:09.858Z,47.84
2023-04-09T00:02:31.577Z,47.94
2023-04-09T00:02:53.295Z,48.00
2023-04-09T00:03:16.133Z,48.03
2023-04-09T00:03:38.939Z,48.13
2023-04-09T00:04:00.996Z,48.16
2023-04-09T00:04:23.760Z,48.19
2023-04-09T00:04:46.624Z,47.85
2023-04-09T00:05:08.581Z,48.20
2023-04-09T00:05:30.264Z,48.21
2023-04-09T00:05:52.440Z,48.24
2023-04-09T00:06:15.037Z,48.21
2023-04-09T00:06:36.734Z,48.25
2023-04-09T00:06:58.507Z,48.12
2023-04-09T00:07:20.271Z,48.15
2023-04-09T00:07:44.232Z,48.30
2023-04-09T00:08:07.789Z,48.12
2023-04-09T00:08:29.608Z,48.10
2023-04-09T00:08:51.741Z,48.18
2023-04-09T00:09:13.633Z,47.96
2023-04-09T00:09:36.238Z,48.02
2023-04-09T00:09:57.860Z,48.15
2023-04-09T00:10:19.605Z,48.28
2023-04-09T00:10:41.608Z,48.09
2023-04-09T00:11:04.706Z,48.25
2023-04-09T00:11:26.927Z,47.94
2023-04-09T00:11:48.559Z,48.17
2023-04-09T00:12:10.535Z,47.98
2023-04-09T00:12:33.506Z,47.73
2023-04-09T00:12:56.032Z,47.71
2023-04-09T00:13:25.335Z,47.65
2023-04-09T00:13:53.534Z,47.66
2023-04-09T00:14:15.363Z,47.87
2023-04-09T00:14:38.002Z,48.07
2023-04-09T00:14:59.740Z,48.13
2023-04-09T00:15:30.605Z,47.94
2023-04-09T00:15:53.511Z,47.99
2023-04-09T00:16:16.145Z,48.02
2023-04-09T00:16:38.196Z,47.80
2023-04-09T00:16:59.884Z,47.72
2023-04-09T00:17:21.659Z,47.98
2023-04-09T00:17:44.313Z,47.78
2023-04-09T00:18:06.198Z,47.69
2023-04-09T00:18:28.014Z,48.01
2023-04-09T00:18:49.938Z,47.86
2023-04-09T00:19:12.780Z,47.94
2023-04-09T00:19:34.472Z,47.77
2023-04-09T00:19:56.322Z,47.80
2023-04-09T00:20:18.069Z,47.53
2023-04-09T00:20:39.918Z,47.44
2023-04-09T00:21:02.689Z,47.75
2023-04-09T00:21:24.343Z,47.86
2023-04-09T00:21:45.940Z,47.82
2023-04-09T00:22:07.515Z,47.65
2023-04-09T00:22:30.224Z,47.80
2023-04-09T00:22:52.372Z,48.06
2023-04-09T00:23:14.130Z,48.30
2023-04-09T00:23:35.963Z,48.17
2023-04-09T00:23:58.954Z,48.07
2023-04-09T00:24:20.543Z,48.15
2023-04-09T00:24:42.176Z,48.31
2023-04-09T00:25:04.399Z,48.29
2023-04-09T00:25:26.217Z,48.25
2023-04-09T00:25:48.878Z,48.21
2023-04-09T00:26:10.533Z,48.16
2023-04-09T00:26:32.759Z,48.36
2023-04-09T00:26:54.408Z,48.17
2023-04-09T00:27:17.028Z,48.04
2023-04-09T00:27:40.288Z,47.84
2023-04-09T00:28:02.017Z,48.00
2023-04-09T00:28:23.731Z,47.88
2023-04-09T00:28:46.662Z,48.12
2023-04-09T00:29:08.321Z,47.87
2023-04-09T00:29:30.062Z,47.97
2023-04-09T00:29:53.719Z,48.26
2023-04-09T00:30:15.796Z,47.98
2023-04-09T00:30:38.426Z,47.83
2023-04-09T00:31:00.357Z,47.92
2023-04-09T00:31:22.005Z,47.97
2023-04-09T00:31:43.598Z,48.14
2023-04-09T00:32:06.862Z,47.89
2023-04-09T00:32:28.513Z,47.73
2023-04-09T00:32:50.694Z,47.65
2023-04-09T00:33:12.527Z,47.71
2023-04-09T00:33:35.310Z,47.75
2023-04-09T00:33:57.388Z,47.62
2023-04-09T00:34:19.096Z,47.93
2023-04-09T00:34:40.951Z,47.87
2023-04-09T00:35:02.536Z,47.89
2023-04-09T00:35:25.969Z,47.70
2023-04-09T00:35:47.716Z,47.70
2023-04-09T00:36:09.457Z,47.64
2023-04-09T00:36:32.221Z,47.68
2023-04-09T00:37:02.531Z,47.71
2023-04-09T00:37:24.392Z,47.62
2023-04-09T00:37:46.228Z,47.74
2023-04-09T00:38:08.901Z,47.76
2023-04-09T00:38:30.860Z,47.70
2023-04-09T00:38:56.157Z,47.68
2023-04-09T00:39:19.091Z,47.55
2023-04-09T00:39:41.689Z,47.51
2023-04-09T00:40:04.143Z,47.72
2023-04-09T00:40:26.087Z,47.77
2023-04-09T00:40:49.400Z,47.83
2023-04-09T00:41:11.269Z,48.18
2023-04-09T00:41:34.237Z,48.28
2023-04-09T00:42:01.440Z,48.19
2023-04-09T00:42:23.661Z,48.01
2023-04-09T00:42:48.020Z,48.05
2023-04-09T00:43:10.014Z,48.21
2023-04-09T00:43:31.665Z,47.92
2023-04-09T00:43:56.077Z,48.00
2023-04-09T00:44:18.671Z,48.00
2023-04-09T00:44:40.494Z,47.98
2023-04-09T00:45:02.178Z,47.80
2023-04-09T00:45:24.040Z,47.71
2023-04-09T00:45:46.850Z,47.82
2023-04-09T00:46:08.679Z,48.12
2023-04-09T00:46:31.438Z,47.92
2023-04-09T00:46:54.255Z,48.20
2023-04-09T00:47:15.931Z,47.96
2023-04-09T00:47:38.703Z,47.81
2023-04-09T00:48:00.853Z,47.83
2023-04-09T00:48:22.867Z,48.26
2023-04-09T00:48:44.769Z,48.09
2023-04-09T00:49:07.670Z,48.10
2023-04-09T00:49:29.946Z,48.07
2023-04-09T00:49:51.622Z,47.90
2023-04-09T00:50:13.375Z,48.00
2023-04-09T00:50:36.078Z,48.00
2023-04-09T00:50:57.780Z,47.97
2023-04-09T00:51:19.421Z,47.88
2023-04-09T00:51:41.097Z,47.94
2023-04-09T00:52:04.020Z,47.92
2023-04-09T00:52:26.031Z,48.13
2023-04-09T00:52:47.701Z,48.29
2023-04-09T00:53:12.801Z,47.95
2023-04-09T00:53:34.797Z,48.23
2023-04-09T00:53:56.589Z,48.33
2023-04-09T00:54:18.772Z,48.16
2023-04-09T00:54:41.323Z,48.13
2023-04-09T00:55:05.407Z,48.07
2023-04-09T00:55:27.081Z,47.89
2023-04-09T00:55:49.007Z,47.96
2023-04-09T00:56:13.284Z,47.92
2023-04-09T00:56:36.984Z,47.94
2023-04-09T00:56:59.549Z,47.66
2023-04-09T00:57:21.686Z,47.76
2023-04-09T00:57:43.415Z,47.69
2023-04-09T00:58:07.582Z,47.55
2023-04-09T00:58:29.370Z,47.67
2023-04-09T00:58:51.351Z,47.43
2023-04-09T00:59:13.477Z,47.61
2023-04-09T00:59:35.264Z,47.69
2023-04-09T00:59:57.984Z,47.74
2023-04-09T01:00:19.709Z,47.69
2023-04-09T01:00:41.442Z,47.76
2023-04-09T01:01:03.423Z,47.69
2023-04-09T01:01:26.197Z,48.03
2023-04-09T01:01:47.946Z,47.92
2023-04-09T01:02:09.927Z,48.21
2023-04-09T01:02:31.741Z,47.93
2023-04-09T01:02:56.168Z,47.97
2023-04-09T01:03:19.083Z,48.11
2023-04-09T01:03:41.161Z,48.28
2023-04-09T01:04:03.332Z,48.24
2023-04-09T01:04:25.565Z,48.39
2023-04-09T01:04:49.780Z,48.00
2023-04-09T01:05:13.042Z,48.09
2023-04-09T01:05:41.338Z,47.92
2023-04-09T01:06:11.037Z,47.94
2023-04-09T01:06:43.674Z,48.08
2023-04-09T01:07:11.879Z,47.75
2023-04-09T01:07:49.066Z,47.92
2023-04-09T01:08:20.321Z,48.14
2023-04-09T01:08:49.582Z,47.92
2023-04-09T01:09:18.501Z,47.84
2023-04-09T01:09:43.786Z,48.19
2023-04-09T01:10:17.897Z,48.04
2023-04-09T01:10:44.569Z,47.89
2023-04-09T01:11:28.865Z,47.94
2023-04-09T01:12:03.360Z,47.81
2023-04-09T01:12:33.211Z,47.62
2023-04-09T01:13:04.235Z,47.71
2023-04-09T01:13:32.454Z,47.62
2023-04-09T01:14:05.209Z,47.73
2023-04-09T01:14:32.908Z,47.82
2023-04-09T01:15:06.050Z,47.80
2023-04-09T01:15:33.930Z,47.74
2023-04-09T01:15:58.462Z,47.90
2023-04-09T01:16:23.889Z,47.97
2023-04-09T01:16:53.875Z,47.87
2023-04-09T01:17:21.978Z,47.77
2023-04-09T01:17:50.584Z,47.90
2023-04-09T01:18:30.229Z,48.07
2023-04-09T01:18:58.189Z,48.12
2023-04-09T01:19:36.033Z,48.03
2023-04-09T01:20:01.734Z,48.07
2023-04-09T01:20:33.726Z,47.97
2023-04-09T01:20:59.323Z,48.06
2023-04-09T01:21:26.613Z,48.25
2023-04-09T01:21:49.207Z,48.26
2023-04-09T01:22:31.756Z,48.19
2023-04-09T01:22:59.667Z,47.95
2023-04-09T01:23:34.756Z,47.94
2023-04-09T01:24:10.781Z,48.14
2023-04-09T01:24:42.826Z,48.07
2023-04-09T01:25:17.298Z,48.02
2023-04-09T01:25:46.585Z,48.18
2023-04-09T01:26:17.142Z,48.01
2023-04-09T01:26:58.342Z,47.97
2023-04-09T01:27:31.984Z,47.71
2023-04-09T01:28:08.166Z,47.58
2023-04-09T01:28:33.226Z,47.28
2023-04-09T01:28:57.759Z,47.46
2023-04-09T01:29:22.834Z,47.59
2023-04-09T01:29:47.817Z,47.27
2023-04-09T01:30:10.881Z,47.81
2023-04-09T01:30:33.769Z,47.74
2023-04-09T01:31:01.775Z,47.98
2023-04-09T01:31:29.710Z,47.87
2023-04-09T01:31:52.261Z,47.85
2023-04-09T01:32:18.315Z,48.13
2023-04-09T01:32:41.329Z,47.99
2023-04-09T01:33:05.333Z,47.91
2023-04-09T01:33:27.593Z,48.05
2023-04-09T01:33:50.195Z,48.13
2023-04-09T01:34:13.263Z,48.22
2023-04-09T01:34:36.166Z,48.28
2023-04-09T01:34:58.311Z,48.25
2023-04-09T01:35:22.221Z,48.01
2023-04-09T01:35:46.252Z,48.11
2023-04-09T01:36:08.434Z,48.17
2023-04-09T01:36:32.278Z,48.03
2023-04-09T01:36:59.234Z,48.08
2023-04-09T01:37:22.771Z,47.99
2023-04-09T01:37:44.958Z,47.86
2023-04-09T01:38:07.374Z,47.87
2023-04-09T01:38:29.982Z,47.99
2023-04-09T01:38:54.121Z,47.92
2023-04-09T01:39:16.380Z,48.15
2023-04-09T01:39:39.169Z,48.01
2023-04-09T01:40:02.273Z,47.90
2023-04-09T01:40:24.628Z,47.80
2023-04-09T01:40:46.843Z,47.93
2023-04-09T01:41:18.225Z,48.02
2023-04-09T01:41:41.406Z,48.02
2023-04-09T01:42:03.825Z,47.88
2023-04-09T01:42:26.305Z,47.66
2023-04-09T01:42:49.976Z,47.84
2023-04-09T01:43:15.057Z,47.96
2023-04-09T01:43:37.897Z,47.99
2023-04-09T01:44:01.808Z,47.94
2023-04-09T01:44:25.477Z,47.76
2023-04-09T01:44:48.845Z,47.92
2023-04-09T01:45:11.805Z,47.89
2023-04-09T01:45:34.840Z,47.97
2023-04-09T01:45:57.246Z,47.88
2023-04-09T01:46:21.329Z,47.84
2023-04-09T01:46:43.138Z,47.48
2023-04-09T01:47:05.568Z,47.60
2023-04-09T01:47:27.873Z,47.28
2023-04-09T01:47:49.903Z,47.31
2023-04-09T01:48:14.358Z,47.42
2023-04-09T01:48:36.907Z,47.66
2023-04-09T01:48:59.311Z,47.77
2023-04-09T01:49:22.076Z,48.13
2023-04-09T01:49:45.766Z,47.81
2023-04-09T01:50:08.298Z,47.85
2023-04-09T01:50:30.235Z,47.80
2023-04-09T01:50:52.095Z,47.91
2023-04-09T01:51:14.189Z,47.79
2023-04-09T01:51:37.650Z,47.94
2023-04-09T01:51:59.942Z,47.83
2023-04-09T01:52:21.980Z,47.70
2023-04-09T01:52:43.845Z,47.78
2023-04-09T01:53:06.121Z,47.64
2023-04-09T01:53:28.808Z,47.78
2023-04-09T01:53:50.520Z,47.92
2023-04-09T01:54:12.182Z,47.96
2023-04-09T01:54:33.978Z,48.05
2023-04-09T01:54:55.820Z,47.93
2023-04-09T01:55:17.597Z,47.81
2023-04-09T01:55:40.331Z,47.82
2023-04-09T01:56:03.520Z,47.59
2023-04-09T01:56:25.773Z,47.56
2023-04-09T01:56:49.772Z,47.71
2023-04-09T01:57:11.672Z,47.75
2023-04-09T01:57:33.286Z,47.53
2023-04-09T01:57:54.902Z,47.58
2023-04-09T01:58:19.259Z,47.84
2023-04-09T01:58:41.270Z,47.77
2023-04-09T01:59:02.988Z,47.78
2023-04-09T01:59:24.653Z,47.71
2023-04-09T01:59:46.279Z,47.58
2023-04-09T02:00:10.578Z,47.62
2023-04-09T02:00:40.696Z,47.63
2023-04-09T02:01:11.878Z,47.65
2023-04-09T02:01:40.165Z,47.49
2023-04-09T02:02:06.856Z,47.46
2023-04-09T02:02:36.730Z,47.53
2023-04-09T02:03:06.128Z,47.76
2023-04-09T02:03:34.471Z,47.65
2023-04-09T02:04:00.833Z,47.68
2023-04-09T02:04:26.974Z,47.70
2023-04-09T02:04:52.514Z,47.94
2023-04-09T02:05:17.898Z,47.77
2023-04-09T02:05:46.399Z,47.56
2023-04-09T02:06:16.052Z,47.54
2023-04-09T02:06:43.745Z,47.52
2023-04-09T02:07:10.641Z,47.79
2023-04-09T02:07:38.067Z,47.80
2023-04-09T02:08:03.869Z,47.84
2023-04-09T02:08:27.843Z,47.84
2023-04-09T02:08:52.070Z,47.83
2023-04-09T02:09:17.725Z,47.74
2023-04-09T02:09:42.822Z,48.03
2023-04-09T02:10:06.806Z,47.71
2023-04-09T02:10:31.683Z,47.72
2023-04-09T02:10:58.084Z,47.56
2023-04-09T02:11:24.549Z,47.46
2023-04-09T02:11:48.582Z,47.21
2023-04-09T02:12:13.318Z,47.47
2023-04-09T02:12:38.526Z,47.36
2023-04-09T02:13:03.200Z,47.16
2023-04-09T02:13:28.607Z,47.47
2023-04-09T02:13:54.348Z,47.47
2023-04-09T02:14:16.517Z,47.47
2023-04-09T02:14:42.025Z,47.45
2023-04-09T02:15:06.039Z,47.55
2023-04-09T02:15:29.195Z,47.52
2023-04-09T02:15:51.767Z,47.72
2023-04-09T02:16:16.753Z,47.45
2023-04-09T02:16:39.294Z,47.30
2023-04-09T02:17:02.141Z,47.24
2023-04-09T02:17:23.848Z,47.11
2023-04-09T02:17:45.660Z,47.22
2023-04-09T02:18:22.016Z,47.36
2023-04-09T02:18:44.121Z,47.23
2023-04-09T02:19:06.118Z,47.13
2023-04-09T02:19:39.095Z,47.30
2023-04-09T02:20:01.657Z,47.22
2023-04-09T02:20:24.657Z,47.19
2023-04-09T02:20:46.265Z,47.26
2023-04-09T02:21:07.966Z,47.39
2023-04-09T02:21:31.644Z,47.27
2023-04-09T02:21:53.348Z,47.30
2023-04-09T02:22:16.056Z,47.43
2023-04-09T02:22:39.070Z,47.64
2023-04-09T02:23:01.669Z,47.55
2023-04-09T02:23:24.023Z,47.64
2023-04-09T02:23:45.620Z,47.38
2023-04-09T02:24:07.481Z,47.37
2023-04-09T02:24:30.572Z,47.55
2023-04-09T02:24:52.149Z,47.17
2023-04-09T02:25:14.280Z,47.39
2023-04-09T02:25:37.038Z,47.51
2023-04-09T02:25:59.241Z,47.41
2023-04-09T02:26:21.423Z,47.60
2023-04-09T02:26:43.028Z,47.54
2023-04-09T02:27:08.629Z,47.40
2023-04-09T02:27:30.499Z,47.69
2023-04-09T02:27:52.101Z,47.95
2023-04-09T02:28:14.780Z,47.84
2023-04-09T02:28:38.310Z,47.82
2023-04-09T02:28:59.955Z,47.74
2023-04-09T02:29:21.885Z,47.78
2023-04-09T02:29:43.754Z,47.93
2023-04-09T02:30:09.130Z,47.84
2023-04-09T02:30:30.843Z,47.62
2023-04-09T02:30:52.469Z,47.45
2023-04-09T02:31:14.204Z,47.55
2023-04-09T02:31:36.978Z,47.34
2023-04-09T02:31:58.701Z,47.40
2023-04-09T02:32:20.463Z,47.33
2023-04-09T02:32:42.187Z,47.16
2023-04-09T02:33:04.253Z,47.17
2023-04-09T02:33:26.960Z,47.25
2023-04-09T02:33:48.946Z,47.28
2023-04-09T02:34:10.803Z,47.31
2023-04-09T02:34:32.470Z,47.17
2023-04-09T02:34:57.680Z,47.12
2023-04-09T02:35:19.337Z,47.19
2023-04-09T02:35:41.008Z,46.99
2023-04-09T02:36:02.996Z,47.06
2023-04-09T02:36:26.494Z,47.21
2023-04-09T02:36:48.419Z,47.05
2023-04-09T02:37:10.205Z,47.03
2023-04-09T02:37:32.006Z,47.09
2023-04-09T02:37:54.693Z,47.16
2023-04-09T02:38:16.348Z,47.29
2023-04-09T02:38:37.997Z,47.35
2023-04-09T02:38:59.562Z,47.53
2023-04-09T02:39:22.143Z,47.53
2023-04-09T02:39:43.987Z,47.44
2023-04-09T02:40:07.005Z,47.46
2023-04-09T02:40:29.623Z,47.15
2023-04-09T02:40:51.377Z,47.29
2023-04-09T02:41:13.039Z,47.01
2023-04-09T02:41:34.691Z,47.07
2023-04-09T02:41:57.753Z,46.94
2023-04-09T02:42:21.757Z,47.13
2023-04-09T02:42:43.531Z,47.24
2023-04-09T02:43:05.278Z,47.14
2023-04-09T02:43:28.000Z,47.17
2023-04-09T02:43:50.984Z,47.07
2023-04-09T02:44:12.716Z,47.33
2023-04-09T02:44:34.590Z,47.55
2023-04-09T02:44:57.578Z,47.22
2023-04-09T02:45:19.778Z,47.02
2023-04-09T02:45:41.569Z,46.94
2023-04-09T02:46:03.501Z,47.25
2023-04-09T02:46:27.042Z,46.95
2023-04-09T02:46:49.173Z,47.08
2023-04-09T02:47:11.183Z,47.29
2023-04-09T02:47:34.093Z,47.13
2023-04-09T02:47:56.791Z,47.37
2023-04-09T02:48:18.474Z,47.43
2023-04-09T02:48:40.174Z,47.09
2023-04-09T02:49:01.978Z,47.37
2023-04-09T02:49:24.978Z,47.25
2023-04-09T02:49:46.624Z,47.15
2023-04-09T02:50:08.811Z,47.14
2023-04-09T02:50:33.763Z,47.24
2023-04-09T02:50:56.456Z,46.98
2023-04-09T02:51:18.286Z,47.20
2023-04-09T02:51:39.943Z,47.01
2023-04-09T02:52:01.661Z,47.24
2023-04-09T02:52:25.170Z,47.07
2023-04-09T02:52:47.758Z,47.14
2023-04-09T02:53:10.915Z,47.05
2023-04-09T02:53:32.534Z,46.98
2023-04-09T02:53:55.235Z,46.99
2023-04-09T02:54:16.922Z,46.96
2023-04-09T02:54:38.675Z,46.86
2023-04-09T02:55:00.347Z,46.97
2023-04-09T02:55:23.383Z,47.00
2023-04-09T02:55:45.028Z,47.13
2023-04-09T02:56:06.753Z,47.28
2023-04-09T02:56:29.725Z,47.32
2023-04-09T02:56:52.380Z,47.34
2023-04-09T02:57:14.061Z,47.19
2023-04-09T02:57:36.338Z,47.09
2023-04-09T02:57:58.045Z,47.06
2023-04-09T02:58:20.713Z,46.80
2023-04-09T02:58:42.328Z,46.69
2023-04-09T02:59:05.337Z,46.64
2023-04-09T02:59:27.067Z,46.89
2023-04-09T02:59:49.733Z,46.64
2023-04-09T03:00:12.470Z,46.64
2023-04-09T03:00:34.241Z,46.61
2023-04-09T03:00:56.163Z,46.68
2023-04-09T03:01:18.827Z,46.24
2023-04-09T03:01:40.666Z,46.37
2023-04-09T03:02:02.609Z,46.33
2023-04-09T03:02:24.520Z,46.29
2023-04-09T03:02:47.321Z,46.52
2023-04-09T03:03:09.239Z,46.53
2023-04-09T03:03:31.626Z,46.18
2023-04-09T03:03:53.407Z,46.24
2023-04-09T03:04:17.503Z,46.06
2023-04-09T03:04:39.493Z,46.44
2023-04-09T03:05:01.288Z,46.33
2023-04-09T03:05:23.779Z,46.32
2023-04-09T03:05:46.432Z,46.26
2023-04-09T03:06:08.159Z,46.40
2023-04-09T03:06:29.821Z,46.25
2023-04-09T03:06:51.654Z,46.37
2023-04-09T03:07:13.358Z,46.28
2023-04-09T03:07:36.014Z,46.32
2023-04-09T03:07:57.731Z,46.46
2023-04-09T03:08:19.450Z,46.43
2023-04-09T03:08:42.129Z,46.40
2023-04-09T03:09:04.002Z,46.28
2023-04-09T03:09:25.673Z,46.45
2023-04-09T03:09:47.272Z,46.56
2023-04-09T03:10:10.852Z,46.54
2023-04-09T03:10:32.557Z,46.63
2023-04-09T03:10:54.217Z,46.68
2023-04-09T03:11:15.978Z,46.61
2023-04-09T03:11:38.601Z,46.87
2023-04-09T03:12:01.862Z,46.98
2023-04-09T03:12:23.541Z,46.94
2023-04-09T03:12:45.192Z,46.82
2023-04-09T03:13:07.781Z,46.82
2023-04-09T03:13:29.424Z,46.82
2023-04-09T03:13:51.079Z,46.96
2023-04-09T03:14:14.116Z,46.89
2023-04-09T03:14:35.758Z,46.79
2023-04-09T03:14:58.347Z,46.90
2023-04-09T03:15:19.973Z,46.91
2023-04-09T03:15:41.829Z,46.91
2023-04-09T03:16:03.875Z,46.75
2023-04-09T03:16:26.734Z,46.84
2023-04-09T03:16:48.340Z,46.85
2023-04-09T03:17:10.031Z,46.82
2023-04-09T03:17:32.160Z,46.71
2023-04-09T03:17:54.921Z,46.92
2023-04-09T03:18:16.625Z,46.93
2023-04-09T03:18:38.301Z,46.94
2023-04-09T03:19:00.446Z,46.82
2023-04-09T03:19:23.166Z,46.74
2023-04-09T03:19:44.921Z,46.81
2023-04-09T03:20:07.605Z,46.83
2023-04-09T03:20:32.521Z,46.82
2023-04-09T03:20:55.037Z,47.08
2023-04-09T03:21:16.916Z,47.01
2023-04-09T03:21:43.163Z,46.83
2023-04-09T03:22:05.454Z,46.87
2023-04-09T03:22:28.091Z,47.04
2023-04-09T03:22:50.339Z,47.08
2023-04-09T03:23:26.849Z,47.20
2023-04-09T03:23:49.707Z,47.08
2023-04-09T03:24:11.723Z,47.14
2023-04-09T03:24:33.791Z,47.26
2023-04-09T03:24:58.517Z,47.09
2023-04-09T03:25:21.163Z,47.19
2023-04-09T03:25:46.455Z,47.23
2023-04-09T03:26:11.333Z,47.12
2023-04-09T03:26:40.740Z,47.21
2023-04-09T03:27:02.498Z,47.15
2023-04-09T03:27:25.592Z,47.02
2023-04-09T03:27:50.162Z,46.91
2023-04-09T03:28:22.073Z,46.90
2023-04-09T03:28:47.536Z,46.82
2023-04-09T03:29:09.107Z,47.00
2023-04-09T03:29:32.226Z,47.07
2023-04-09T03:29:55.995Z,47.15
2023-04-09T03:30:21.044Z,46.99
2023-04-09T03:30:42.802Z,47.18
2023-04-09T03:31:04.749Z,47.24
2023-04-09T03:31:30.957Z,47.33
2023-04-09T03:31:53.778Z,47.35
2023-04-09T03:32:16.817Z,47.27
2023-04-09T03:32:40.295Z,47.20
2023-04-09T03:33:03.425Z,47.06
2023-04-09T03:33:29.387Z,46.83
2023-04-09T03:33:53.140Z,47.08
2023-04-09T03:34:14.915Z,47.05
2023-04-09T03:34:36.579Z,47.20
2023-04-09T03:34:59.223Z,47.20
2023-04-09T03:35:21.303Z,47.12
2023-04-09T03:35:43.303Z,47.22
2023-04-09T03:36:06.516Z,47.03
2023-04-09T03:36:50.090Z,47.34
2023-04-09T03:37:18.681Z,47.22
2023-04-09T03:37:40.607Z,47.13
2023-04-09T03:38:08.975Z,47.41
2023-04-09T03:38:30.756Z,47.43
2023-04-09T03:38:55.761Z,47.38
2023-04-09T03:39:40.792Z,47.53
2023-04-09T03:40:03.279Z,47.56
2023-04-09T03:40:27.291Z,47.49
2023-04-09T03:40:48.955Z,47.28
2023-04-09T03:41:10.629Z,47.23
2023-04-09T03:41:33.112Z,47.28
2023-04-09T03:41:59.711Z,47.28
2023-04-09T03:42:25.197Z,47.29
2023-04-09T03:42:46.914Z,47.52
2023-04-09T03:43:10.724Z,47.36
2023-04-09T03:43:36.572Z,47.41
2023-04-09T03:43:58.801Z,47.40
2023-04-09T03:44:25.249Z,47.44
2023-04-09T03:44:56.383Z,47.23
2023-04-09T03:45:29.466Z,47.16
2023-04-09T03:46:11.125Z,47.37
2023-04-09T03:46:32.972Z,47.09
2023-04-09T03:46:57.001Z,47.22
2023-04-09T03:47:19.617Z,47.15
2023-04-09T03:47:41.580Z,47.17
2023-04-09T03:48:04.204Z,47.20
2023-04-09T03:48:27.348Z,47.21
2023-04-09T03:48:51.685Z,47.01
2023-04-09T03:49:14.506Z,46.80
2023-04-09T03:49:39.147Z,46.58
2023-04-09T03:50:12.780Z,46.42
2023-04-09T03:50:45.302Z,46.47
2023-04-09T03:51:12.855Z,46.68
2023-04-09T03:51:35.605Z,46.80
2023-04-09T03:51:57.563Z,46.78
2023-04-09T03:52:24.852Z,46.66
2023-04-09T03:52:54.867Z,46.80
2023-04-09T03:53:16.834Z,46.82
2023-04-09T03:53:40.304Z,46.89
2023-04-09T03:54:03.120Z,46.81
2023-04-09T03:54:24.833Z,46.83
2023-04-09T03:54:47.393Z,46.64
2023-04-09T03:55:13.883Z,46.61
2023-04-09T03:55:38.430Z,46.34
2023-04-09T03:56:06.087Z,46.52
2023-04-09T03:56:29.416Z,46.49
2023-04-09T03:56:51.943Z,46.61
2023-04-09T03:57:19.201Z,46.51
2023-04-09T03:57:43.613Z,46.79
2023-04-09T03:58:09.500Z,46.88
2023-04-09T03:58:32.478Z,46.86
2023-04-09T03:58:56.065Z,46.77
2023-04-09T03:59:26.380Z,46.85
2023-04-09T03:59:48.356Z,46.84
2023-04-09T04:00:14.904Z,46.67
2023-04-09T04:00:46.714Z,46.84
2023-04-09T04:01:25.798Z,47.06
2023-04-09T04:01:52.859Z,47.13
2023-04-09T04:02:14.759Z,46.92
2023-04-09T04:02:41.979Z,47.01
2023-04-09T04:03:05.908Z,47.05
2023-04-09T04:03:54.211Z,47.00
2023-04-09T04:04:23.604Z,46.99
2023-04-09T04:04:50.839Z,47.08
2023-04-09T04:05:12.592Z,47.28
2023-04-09T04:05:40.054Z,47.07
2023-04-09T04:06:04.585Z,47.13
2023-04-09T04:06:38.157Z,47.13
2023-04-09T04:07:20.235Z,47.14
2023-04-09T04:07:46.587Z,46.92
2023-04-09T04:08:14.239Z,47.07
2023-04-09T04:08:35.934Z,47.09
2023-04-09T04:08:57.680Z,47.20
2023-04-09T04:09:28.209Z,47.07
2023-04-09T04:09:54.578Z,47.18
2023-04-09T04:10:16.465Z,47.17
2023-04-09T04:10:40.951Z,46.87
2023-04-09T04:11:04.899Z,47.00
2023-04-09T04:11:28.101Z,46.64
2023-04-09T04:11:50.316Z,46.58
2023-04-09T04:12:13.477Z,46.58
2023-04-09T04:12:50.260Z,46.88
2023-04-09T04:13:24.302Z,47.00
2023-04-09T04:13:51.007Z,46.88
2023-04-09T04:14:12.670Z,46.84
2023-04-09T04:14:37.768Z,46.91
2023-04-09T04:15:10.132Z,47.04
2023-04-09T04:15:41.228Z,46.63
2023-04-09T04:16:07.446Z,46.98
2023-04-09T04:16:31.023Z,46.65
2023-04-09T04:16:52.884Z,46.76
2023-04-09T04:17:17.543Z,46.73
2023-04-09T04:17:39.400Z,46.99
2023-04-09T04:18:09.365Z,46.87
2023-04-09T04:18:38.607Z,46.63
2023-04-09T04:19:00.689Z,46.46
2023-04-09T04:19:24.607Z,46.56
2023-04-09T04:19:46.995Z,46.27
2023-04-09T04:20:10.108Z,46.27
2023-04-09T04:20:42.494Z,46.32
2023-04-09T04:21:13.997Z,46.46
2023-04-09T04:21:39.069Z,46.71
2023-04-09T04:22:01.550Z,46.58
2023-04-09T04:22:26.109Z,46.53
2023-04-09T04:22:50.322Z,46.62
2023-04-09T04:23:13.238Z,46.72
2023-04-09T04:23:47.399Z,46.75
2023-04-09T04:24:14.676Z,46.73
2023-04-09T04:24:36.474Z,46.76
2023-04-09T04:24:58.526Z,46.72
2023-04-09T04:25:21.391Z,46.88
2023-04-09T04:25:44.664Z,47.02
2023-04-09T04:26:10.680Z,46.80
2023-04-09T04:26:33.239Z,46.69
2023-04-09T04:26:54.993Z,46.72
2023-04-09T04:27:18.206Z,46.66
2023-04-09T04:27:41.746Z,46.74
2023-04-09T04:28:14.148Z,46.71
2023-04-09T04:28:37.314Z,46.70
2023-04-09T04:29:01.272Z,46.62
2023-04-09T04:29:37.804Z,46.86
2023-04-09T04:30:09.775Z,47.06
2023-04-09T04:30:42.716Z,46.86
2023-04-09T04:31:07.963Z,46.85
2023-04-09T04:31:29.697Z,46.91
2023-04-09T04:31:54.365Z,47.08
2023-04-09T04:32:18.865Z,47.08
2023-04-09T04:32:40.766Z,47.31
2023-04-09T04:33:05.961Z,47.42
2023-04-09T04:33:36.254Z,47.35
2023-04-09T04:33:59.393Z,47.05
2023-04-09T04:34:21.239Z,47.18
2023-04-09T04:34:50.481Z,47.23
2023-04-09T04:35:22.559Z,46.87
2023-04-09T04:35:48.421Z,46.95
2023-04-09T04:36:30.674Z,46.82
2023-04-09T04:36:53.224Z,46.97
2023-04-09T04:37:15.494Z,46.87
2023-04-09T04:37:37.170Z,46.79
2023-04-09T04:37:59.024Z,47.04
2023-04-09T04:38:22.032Z,46.83
2023-04-09T04:38:45.279Z,47.04
2023-04-09T04:39:27.621Z,47.08
2023-04-09T04:39:57.041Z,47.04
2023-04-09T04:40:19.672Z,47.14
2023-04-09T04:40:42.521Z,46.85
2023-04-09T04:41:04.706Z,46.87
2023-04-09T04:41:29.537Z,46.94
2023-04-09T04:42:03.505Z,46.97
2023-04-09T04:42:25.562Z,47.16
2023-04-09T04:42:47.211Z,47.01
2023-04-09T04:43:10.799Z,47.03
2023-04-09T04:43:32.528Z,47.13
2023-04-09T04:43:55.398Z,46.94
2023-04-09T04:44:18.993Z,46.66
2023-04-09T04:44:41.284Z,46.92
2023-04-09T04:45:10.178Z,46.86
2023-04-09T04:45:57.220Z,46.92
2023-04-09T04:46:21.109Z,46.86
2023-04-09T04:46:43.235Z,46.92
2023-04-09T04:47:06.964Z,46.76
2023-04-09T04:47:29.774Z,46.56
2023-04-09T04:47:53.165Z,46.61
2023-04-09T04:48:15.038Z,46.44
2023-04-09T04:48:36.697Z,46.45
2023-04-09T04:48:59.282Z,46.45
2023-04-09T04:49:21.994Z,46.73
2023-04-09T04:49:43.715Z,46.76
2023-04-09T04:50:07.415Z,46.44
2023-04-09T04:50:40.781Z,46.63
2023-04-09T04:51:04.801Z,46.71
2023-04-09T04:51:34.242Z,46.95
2023-04-09T04:52:05.670Z,46.90
2023-04-09T04:52:28.644Z,46.84
2023-04-09T04:52:50.365Z,46.88
2023-04-09T04:53:13.311Z,47.16
2023-04-09T04:53:41.563Z,47.14
2023-04-09T04:54:07.383Z,47.10
2023-04-09T04:54:29.177Z,47.05
2023-04-09T04:54:52.810Z,46.77
2023-04-09T04:55:17.752Z,46.80
2023-04-09T04:55:40.875Z,46.48
2023-04-09T04:56:06.298Z,46.70
2023-04-09T04:56:27.999Z,46.44
2023-04-09T04:57:11.932Z,46.85
2023-04-09T04:57:35.717Z,46.89
2023-04-09T04:57:57.349Z,46.85
2023-04-09T04:58:22.392Z,46.78
2023-04-09T04:58:50.123Z,46.72
2023-04-09T04:59:14.200Z,47.01
2023-04-09T04:59:47.690Z,46.95
2023-04-09T05:00:11.930Z,47.14
2023-04-09T05:00:33.785Z,47.26
2023-04-09T05:01:00.310Z,47.05
2023-04-09T05:01:22.211Z,46.98
2023-04-09T05:01:44.978Z,46.89
2023-04-09T05:02:08.506Z,46.80
2023-04-09T05:02:43.943Z,46.81
2023-04-09T05:03:35.732Z,47.08
2023-04-09T05:04:05.148Z,47.01
2023-04-09T05:04:28.782Z,46.89
2023-04-09T05:04:51.624Z,46.76
2023-04-09T05:05:17.441Z,46.99
2023-04-09T05:05:46.207Z,47.17
2023-04-09T05:06:09.010Z,47.25
2023-04-09T05:06:36.774Z,47.19
2023-04-09T05:07:03.645Z,47.24
2023-04-09T05:07:25.342Z,47.10
2023-04-09T05:07:49.840Z,47.22
2023-04-09T05:08:12.899Z,47.35
2023-04-09T05:08:35.039Z,47.39
2023-04-09T05:08:58.139Z,47.44
2023-04-09T05:09:22.472Z,47.12
2023-04-09T05:09:56.342Z,47.20
2023-04-09T05:10:18.032Z,47.22
2023-04-09T05:10:42.115Z,47.30
2023-04-09T05:11:03.830Z,47.35
2023-04-09T05:11:33.308Z,47.33
2023-04-09T05:11:55.225Z,47.44
2023-04-09T05:12:18.037Z,47.38
2023-04-09T05:12:43.648Z,47.48
2023-04-09T05:13:08.680Z,47.58
2023-04-09T05:13:32.869Z,47.65